Terminal Aerodrome Forecast
Issued by NWS

Home | Current Version | Previous Version | Text Only | Print | Product List | Glossary On
Versions: 1 2 3 4 5 6 7 8 9 10 11 12 13 14 15 16 17
000
FTUS45 KSLC 311548 AAA
TAFBCE
TAF AMD
KBCE 311548Z 3116/0112 03012KT P6SM SKC
     FM311700 01007KT P6SM FEW100
     FM312000 32011G18KT P6SM SCT100
     FM010200 33008KT P6SM SKC=

USA.gov is the U.S. government's official web portal to all federal, state and local government web resources and services.